Time;durP1;ratioP1;P1;durP2;ratioP2;P2;SDS_P1;SDS_P2;PMS_P1;PMS_P2;Temp;Humidity;BMP_temperature;BMP_pressure;BME280_temperature;BME280_humidity;BME280_pressure;Samples;Min_cycle;Max_cycle;Signal;HPM_P1;HPM_P2
2023/09/15 00:01:12;;;;;;;1.88;1.60;;;20.10;85.40;;;;;;5053404;28;20123;-31
2023/09/15 00:03:39;;;;;;;2.00;1.40;;;19.60;85.20;;;;;;5037113;28;20509;-31
2023/09/15 00:06:06;;;;;;;2.08;1.40;;;20.10;85.40;;;;;;5033491;28;20441;-28
2023/09/15 00:08:33;;;;;;;2.42;1.40;;;19.50;76.10;;;;;;5033132;28;20570;-29
2023/09/15 00:11:00;;;;;;;3.05;1.63;;;20.60;85.90;;;;;;5033273;28;20049;-28
2023/09/15 00:13:27;;;;;;;1.88;1.30;;;19.40;71.10;;;;;;5033575;28;20576;-29
2023/09/15 00:15:54;;;;;;;2.42;1.30;;;19.50;84.90;;;;;;5033278;28;20052;-28
2023/09/15 00:18:22;;;;;;;1.75;1.30;;;19.40;85.30;;;;;;5033650;28;20128;-28
2023/09/15 00:20:49;;;;;;;2.40;1.63;;;20.10;85.50;;;;;;5032847;28;20581;-28
2023/09/15 00:23:17;;;;;;;2.53;1.60;;;19.40;81.10;;;;;;5033248;28;20080;-28
2023/09/15 00:25:45;;;;;;;1.63;1.30;;;19.00;71.20;;;;;;5033302;28;20080;-28
2023/09/15 00:28:13;;;;;;;2.83;1.30;;;19.50;84.80;;;;;;5033289;28;20084;-28
2023/09/15 00:30:39;;;;;;;2.00;1.55;;;20.10;73.40;;;;;;5032952;28;20049;-28
2023/09/15 00:33:06;;;;;;;2.20;1.40;;;19.70;85.30;;;;;;5033337;28;20141;-28
2023/09/15 00:35:34;;;;;;;1.83;1.40;;;19.30;67.30;;;;;;5033062;28;20129;-28
2023/09/15 00:38:02;;;;;;;2.08;1.30;;;;;;;;;;5032102;28;20053;-31
2023/09/15 00:40:29;;;;;;;2.65;1.30;;;19.80;85.00;;;;;;5031311;28;20060;-27
2023/09/15 00:42:56;;;;;;;2.17;1.40;;;;;;;;;;5032730;28;20128;-29
2023/09/15 00:45:23;;;;;;;2.17;1.50;;;19.70;85.40;;;;;;5033096;28;20140;-28
2023/09/15 00:47:52;;;;;;;2.40;1.45;;;19.60;67.10;;;;;;5033000;28;20133;-30
2023/09/15 00:50:21;;;;;;;1.75;1.30;;;19.30;85.00;;;;;;5031518;28;20061;-28
2023/09/15 00:52:50;;;;;;;2.67;1.40;;;20.50;85.70;;;;;;5032890;28;20111;-28
2023/09/15 00:55:19;;;;;;;2.40;1.50;;;18.40;84.40;;;;;;5032614;28;20490;-29
2023/09/15 00:57:46;;;;;;;2.90;1.40;;;;;;;;;;5032857;28;20177;-30
2023/09/15 01:00:14;;;;;;;2.10;1.50;;;20.30;85.50;;;;;;5032705;28;20128;-28
2023/09/15 01:02:42;;;;;;;1.95;1.50;;;19.60;67.10;;;;;;5032582;28;20061;-28
2023/09/15 01:05:10;;;;;;;3.08;1.55;;;19.70;71.10;;;;;;5032359;28;20049;-28
2023/09/15 01:07:37;;;;;;;1.83;1.40;;;;;;;;;;5032162;28;20406;-29
2023/09/15 01:10:07;;;;;;;2.08;1.48;;;20.00;85.50;;;;;;5031934;28;20124;-28
2023/09/15 01:12:33;;;;;;;2.08;1.60;;;19.80;85.00;;;;;;5032600;28;20498;-28
2023/09/15 01:15:01;;;;;;;2.05;1.38;;;20.30;78.80;;;;;;5032328;28;20137;-28
2023/09/15 01:17:32;;;;;;;2.10;1.38;;;19.50;67.10;;;;;;5032298;28;20115;-28
2023/09/15 01:20:09;;;;;;;2.50;1.25;;;19.50;67.10;;;;;;5012187;28;20102;-31
2023/09/15 01:23:00;;;;;;;2.72;1.60;;;19.60;67.10;;;;;;5012519;28;20092;-28
2023/09/15 01:25:39;;;;;;;1.98;1.33;;;19.90;85.60;;;;;;5016754;28;20128;-28
2023/09/15 01:28:19;;;;;;;3.15;1.33;;;19.60;83.40;;;;;;5031916;28;20049;-27
2023/09/15 01:30:49;;;;;;;1.85;1.35;;;19.50;67.10;;;;;;5030658;28;20495;-28
2023/09/15 01:33:16;;;;;;;2.47;1.75;;;19.40;81.80;;;;;;5032305;28;20049;-28
2023/09/15 01:35:43;;;;;;;2.05;1.48;;;;;;;;;;5032154;28;20132;-30
2023/09/15 01:38:10;;;;;;;2.65;1.60;;;19.40;81.70;;;;;;5031416;28;20132;-28
2023/09/15 01:40:38;;;;;;;1.45;1.20;;;18.60;74.60;;;;;;5031692;28;20128;-28
2023/09/15 01:43:04;;;;;;;2.90;1.45;;;19.10;85.10;;;;;;5031446;28;20061;-28
2023/09/15 01:45:31;;;;;;;1.60;1.30;;;18.70;84.90;;;;;;5031978;28;20712;-28
2023/09/15 01:47:59;;;;;;;2.00;1.30;;;19.50;67.10;;;;;;5031823;28;20049;-29
2023/09/15 01:50:26;;;;;;;2.15;1.48;;;20.50;73.90;;;;;;5031585;28;20124;-28
2023/09/15 01:52:53;;;;;;;1.90;1.40;;;19.00;84.70;;;;;;5031930;28;20132;-28
2023/09/15 01:55:20;;;;;;;1.77;1.40;;;19.40;84.90;;;;;;5031770;28;20708;-28
2023/09/15 01:57:46;;;;;;;1.95;1.48;;;19.40;85.20;;;;;;5044985;28;20056;-27
2023/09/15 02:00:14;;;;;;;1.90;1.48;;;19.50;67.10;;;;;;5031613;28;20132;-28
2023/09/15 02:02:41;;;;;;;1.50;1.40;;;;;;;;;;5031411;28;20128;-30
2023/09/15 02:05:10;;;;;;;2.47;1.48;;;19.50;67.10;;;;;;5031645;28;20531;-31
2023/09/15 02:07:36;;;;;;;1.65;1.27;;;19.70;78.70;;;;;;5031727;28;20096;-28
2023/09/15 02:10:04;;;;;;;2.20;1.55;;;19.40;85.20;;;;;;5031471;28;20466;-28
2023/09/15 02:12:31;;;;;;;1.85;1.30;;;;;;;;;;5031543;28;20124;-28
2023/09/15 02:14:57;;;;;;;2.25;1.65;;;19.60;85.50;;;;;;5031542;28;20129;-28
2023/09/15 02:17:25;;;;;;;1.50;1.30;;;;;;;;;;5031425;28;20131;-29
2023/09/15 02:19:51;;;;;;;1.65;1.42;;;19.20;79.30;;;;;;5031573;28;20475;-28
2023/09/15 02:22:20;;;;;;;2.28;1.50;;;19.70;68.90;;;;;;5031471;28;20053;-28
2023/09/15 02:24:47;;;;;;;2.17;1.45;;;19.20;81.90;;;;;;5031426;28;20060;-28
2023/09/15 02:27:14;;;;;;;2.58;1.35;;;18.90;84.90;;;;;;5030783;28;20140;-28
2023/09/15 02:29:41;;;;;;;2.35;1.58;;;;;;;;;;5031465;28;20124;-28
2023/09/15 02:32:07;;;;;;;2.70;1.40;;;19.30;85.30;;;;;;5031348;28;20054;-28
2023/09/15 02:34:34;;;;;;;2.08;1.45;;;19.20;85.30;;;;;;5031342;28;20132;-28
2023/09/15 02:37:03;;;;;;;2.15;1.60;;;;;;;;;;5030823;28;20156;-29
2023/09/15 02:39:31;;;;;;;1.98;1.65;;;19.80;75.50;;;;;;5030526;28;20046;-28
2023/09/15 02:41:57;;;;;;;2.47;1.73;;;18.00;72.40;;;;;;5031260;28;20132;-28
2023/09/15 02:44:24;;;;;;;2.30;1.52;;;19.50;83.10;;;;;;5031648;28;20119;-28
2023/09/15 02:46:51;;;;;;;2.05;1.50;;;18.60;84.80;;;;;;5031262;28;20136;-28
2023/09/15 02:49:18;;;;;;;2.13;1.60;;;19.80;70.20;;;;;;5030163;28;20053;-29
2023/09/15 02:51:44;;;;;;;2.30;1.60;;;19.30;85.40;;;;;;5030933;28;20045;-28
2023/09/15 02:54:11;;;;;;;1.60;1.40;;;19.30;85.20;;;;;;5031051;28;20121;-28
2023/09/15 02:56:39;;;;;;;1.77;1.40;;;19.50;76.50;;;;;;5039199;28;20461;-28
2023/09/15 02:59:06;;;;;;;1.88;1.48;;;20.40;71.80;;;;;;5051100;28;20313;-28
2023/09/15 03:01:33;;;;;;;2.70;1.40;;;19.30;85.30;;;;;;5050741;28;20145;-28
2023/09/15 03:04:00;;;;;;;1.77;1.35;;;;;;;;;;5051226;28;20053;-28
2023/09/15 03:06:26;;;;;;;1.92;1.40;;;19.40;84.60;;;;;;5049905;28;20136;-28
2023/09/15 03:08:53;;;;;;;1.55;1.30;;;19.70;81.10;;;;;;5050999;28;20124;-28
2023/09/15 03:11:21;;;;;;;1.80;1.45;;;;;;;;;;5040765;28;20117;-28
2023/09/15 03:13:49;;;;;;;1.80;1.40;;;19.30;67.10;;;;;;5031568;28;20553;-29
2023/09/15 03:16:16;;;;;;;2.88;1.63;;;;;;;;;;5034641;28;20162;-29
2023/09/15 03:18:46;;;;;;;2.03;1.50;;;18.90;85.10;;;;;;5034654;28;20132;-29
2023/09/15 03:21:13;;;;;;;1.60;1.33;;;19.10;80.50;;;;;;5034191;28;20423;-28
2023/09/15 03:23:40;;;;;;;1.70;1.48;;;19.70;85.50;;;;;;5034671;28;20058;-28
2023/09/15 03:26:07;;;;;;;2.28;1.60;;;19.70;79.00;;;;;;5033006;28;20057;-28
2023/09/15 03:28:35;;;;;;;2.00;1.50;;;;;;;;;;5033952;28;20586;-28
2023/09/15 03:31:04;;;;;;;1.98;1.70;;;19.30;67.10;;;;;;5034437;28;20092;-28
2023/09/15 03:33:31;;;;;;;2.53;1.73;;;;;;;;;;5034198;28;20529;-29
2023/09/15 03:35:57;;;;;;;2.42;1.40;;;19.40;85.40;;;;;;5033380;28;20076;-28
2023/09/15 03:38:24;;;;;;;1.50;1.30;;;18.90;85.20;;;;;;5033115;28;20132;-28
2023/09/15 03:40:51;;;;;;;2.40;1.75;;;;;;;;;;5034167;28;20099;-29
2023/09/15 03:43:18;;;;;;;1.77;1.67;;;20.30;80.10;;;;;;5034024;28;20128;-28
2023/09/15 03:45:47;;;;;;;1.55;1.45;;;19.30;85.40;;;;;;5033969;28;20132;-28
2023/09/15 03:48:15;;;;;;;2.63;1.70;;;19.20;85.30;;;;;;5034009;28;20049;-28
2023/09/15 03:50:42;;;;;;;3.45;1.75;;;19.30;79.90;;;;;;5033965;28;20128;-28
2023/09/15 03:53:09;;;;;;;2.85;1.60;;;18.20;77.70;;;;;;5033691;28;20140;-28
2023/09/15 03:55:36;;;;;;;2.03;1.63;;;18.20;81.40;;;;;;5033809;28;20076;-28
2023/09/15 03:58:03;;;;;;;2.15;1.80;;;19.00;85.30;;;;;;5053447;28;20112;-28
2023/09/15 04:00:30;;;;;;;1.95;1.60;;;19.20;85.40;;;;;;5053599;28;20087;-28
2023/09/15 04:02:57;;;;;;;1.92;1.63;;;20.10;85.60;;;;;;5053820;28;20128;-27
2023/09/15 04:05:25;;;;;;;2.15;1.73;;;19.20;67.10;;;;;;5053350;28;20132;-29
2023/09/15 04:07:52;;;;;;;1.90;1.70;;;;;;;;;;5053663;28;20133;-29
2023/09/15 04:10:19;;;;;;;2.40;1.80;;;19.60;85.60;;;;;;5033714;28;20128;-28
2023/09/15 04:12:46;;;;;;;2.15;1.90;;;;;;;;;;5033823;28;20128;-30
2023/09/15 04:15:13;;;;;;;2.45;2.00;;;19.40;85.50;;;;;;5033461;28;20084;-28
2023/09/15 04:17:40;;;;;;;3.17;1.77;;;19.10;85.30;;;;;;5033524;28;20049;-28
2023/09/15 04:20:09;;;;;;;2.33;1.60;;;18.00;80.30;;;;;;5033474;28;20136;-28
2023/09/15 04:22:38;;;;;;;1.92;1.73;;;19.20;67.00;;;;;;5033862;28;20441;-29
2023/09/15 04:25:05;;;;;;;3.10;1.80;;;19.40;84.70;;;;;;5031919;28;20513;-28
2023/09/15 04:27:33;;;;;;;2.97;1.70;;;;;;;;;;5032787;28;20045;-29
2023/09/15 04:30:00;;;;;;;2.50;1.90;;;18.70;85.10;;;;;;5032438;28;20052;-27
2023/09/15 04:32:27;;;;;;;2.30;1.80;;;19.50;73.00;;;;;;5033313;28;20103;-29
2023/09/15 04:34:53;;;;;;;4.07;1.92;;;19.30;85.30;;;;;;5032935;28;20045;-28
2023/09/15 04:37:20;;;;;;;3.00;1.80;;;19.10;85.20;;;;;;5032862;28;20129;-28
2023/09/15 04:39:49;;;;;;;2.25;2.00;;;19.10;66.80;;;;;;5031102;28;20140;-28
2023/09/15 04:42:16;;;;;;;4.05;2.10;;;19.40;85.10;;;;;;5033268;28;20057;-28
2023/09/15 04:44:43;;;;;;;3.47;2.00;;;;;;;;;;5050635;28;20494;-29
2023/09/15 04:47:11;;;;;;;2.03;1.60;;;18.30;84.40;;;;;;5049504;28;20472;-28
2023/09/15 04:49:38;;;;;;;6.25;2.20;;;19.30;84.90;;;;;;5030718;28;20049;-29
2023/09/15 04:52:05;;;;;;;2.28;1.70;;;19.00;84.50;;;;;;5032049;28;20132;-28
2023/09/15 04:54:32;;;;;;;2.53;1.95;;;19.00;70.10;;;;;;5032371;28;20044;-28
2023/09/15 04:57:00;;;;;;;2.72;2.00;;;19.10;66.80;;;;;;5029369;28;20129;-28
2023/09/15 04:59:27;;;;;;;2.42;1.90;;;19.30;85.00;;;;;;5032855;28;20124;-28
2023/09/15 05:01:54;;;;;;;1.60;1.50;;;18.80;75.10;;;;;;5032297;28;20105;-29
2023/09/15 05:04:21;;;;;;;2.95;1.70;;;18.70;84.80;;;;;;5033122;28;20128;-28
2023/09/15 05:06:48;;;;;;;5.28;2.42;;;19.30;72.60;;;;;;5031679;28;20057;-28
2023/09/15 05:09:20;;;;;;;2.60;1.83;;;19.50;78.30;;;;;;5032392;28;20088;-28
2023/09/15 05:11:46;;;;;;;5.50;1.85;;;19.10;85.40;;;;;;5032277;28;20053;-29
2023/09/15 05:14:14;;;;;;;2.72;2.00;;;19.40;85.30;;;;;;5032542;28;20049;-28
2023/09/15 05:16:41;;;;;;;3.88;1.90;;;;;;;;;;5032300;28;20561;-31
2023/09/15 05:19:08;;;;;;;4.38;2.42;;;18.80;80.10;;;;;;5032084;28;20494;-31
2023/09/15 05:21:35;;;;;;;2.38;1.90;;;19.50;85.30;;;;;;5031917;28;20124;-30
2023/09/15 05:24:02;;;;;;;4.35;1.80;;;;;;;;;;5029053;28;20050;-29
2023/09/15 05:26:29;;;;;;;2.83;1.80;;;18.60;82.90;;;;;;5020693;28;20132;-31
2023/09/15 05:28:55;;;;;;;2.15;1.75;;;18.60;85.20;;;;;;5022621;28;20472;-31
2023/09/15 05:31:25;;;;;;;2.90;1.90;;;19.00;66.90;;;;;;5021945;28;20129;-30
2023/09/15 05:33:53;;;;;;;3.25;2.00;;;;;;;;;;5031548;28;20052;-30
2023/09/15 05:36:20;;;;;;;2.72;1.90;;;18.80;82.50;;;;;;5046240;28;20053;-31
2023/09/15 05:38:47;;;;;;;2.55;1.70;;;;;;;;;;5032126;28;20509;-31
2023/09/15 05:41:14;;;;;;;3.78;1.80;;;19.40;85.50;;;;;;5031588;28;20383;-31
2023/09/15 05:43:41;;;;;;;2.03;1.70;;;19.00;66.80;;;;;;5030627;28;20049;-30
2023/09/15 05:46:08;;;;;;;2.50;1.80;;;;;;;;;;5031504;28;20127;-31
2023/09/15 05:48:36;;;;;;;3.08;2.00;;;19.00;66.80;;;;;;5031342;28;20132;-31
2023/09/15 05:51:04;;;;;;;2.05;1.70;;;;;;;;;;5031328;28;20128;-30
2023/09/15 05:53:31;;;;;;;3.90;2.22;;;18.70;72.20;;;;;;5030356;28;20068;-27
2023/09/15 05:55:58;;;;;;;3.20;2.00;;;19.10;82.60;;;;;;5030479;28;20057;-28
2023/09/15 05:58:25;;;;;;;1.90;1.70;;;;;;;;;;5031344;28;20532;-31
2023/09/15 06:00:55;;;;;;;2.90;2.35;;;19.30;70.30;;;;;;5031714;28;20067;-28
2023/09/15 06:03:22;;;;;;;3.83;2.05;;;19.40;85.60;;;;;;5031685;28;20059;-27
2023/09/15 06:05:50;;;;;;;2.38;1.90;;;19.20;85.20;;;;;;5022496;28;20132;-28
2023/09/15 06:08:18;;;;;;;3.35;2.10;;;18.40;84.30;;;;;;5012679;28;20137;-28
2023/09/15 06:10:45;;;;;;;3.05;1.95;;;19.80;85.80;;;;;;5030680;28;20124;-28
2023/09/15 06:13:11;;;;;;;2.35;2.10;;;19.90;70.00;;;;;;5031236;28;20053;-29
2023/09/15 06:15:38;;;;;;;2.20;2.00;;;18.60;84.50;;;;;;5031179;28;20045;-28
2023/09/15 06:18:05;;;;;;;3.90;1.95;;;18.10;85.10;;;;;;5031514;28;20152;-28
2023/09/15 06:20:33;;;;;;;2.30;2.00;;;18.50;72.00;;;;;;5031531;28;20550;-28
2023/09/15 06:23:01;;;;;;;3.25;1.90;;;18.90;66.80;;;;;;5031656;28;20124;-29
2023/09/15 06:25:30;;;;;;;3.90;2.10;;;;;;;;;;5031568;28;20457;-29
2023/09/15 06:27:57;;;;;;;6.25;2.30;;;19.40;85.30;;;;;;5022422;28;20561;-28
2023/09/15 06:30:23;;;;;;;4.35;1.90;;;18.40;84.80;;;;;;5031047;28;20088;-28
2023/09/15 06:32:50;;;;;;;3.35;2.00;;;19.10;77.10;;;;;;5031265;28;20050;-28
2023/09/15 06:35:17;;;;;;;2.83;2.10;;;19.00;67.50;;;;;;5030705;28;20582;-28
2023/09/15 06:37:44;;;;;;;3.20;1.98;;;;;;;;;;5030912;28;20058;-31
2023/09/15 06:40:13;;;;;;;2.63;1.92;;;18.90;85.00;;;;;;5031435;28;20129;-28
2023/09/15 06:42:40;;;;;;;3.17;1.80;;;;;;;;;;5031257;28;20128;-29
2023/09/15 06:45:08;;;;;;;3.92;1.80;;;18.70;84.20;;;;;;5031356;28;20073;-28
2023/09/15 06:47:35;;;;;;;3.20;2.00;;;;;;;;;;5031199;28;20133;-31
2023/09/15 06:50:01;;;;;;;3.25;1.90;;;18.50;84.30;;;;;;5034575;28;20130;-28
2023/09/15 06:52:28;;;;;;;1.70;1.60;;;18.80;85.20;;;;;;5018245;28;20132;-28
2023/09/15 06:54:55;;;;;;;2.78;2.00;;;19.50;72.30;;;;;;5032956;28;20046;-28
2023/09/15 06:57:23;;;;;;;3.63;2.03;;;18.30;69.10;;;;;;5029444;28;20482;-27
2023/09/15 06:59:50;;;;;;;2.67;2.10;;;19.00;85.00;;;;;;5033805;28;20057;-28
2023/09/15 07:02:17;;;;;;;2.80;1.80;;;;;;;;;;5034799;28;20052;-30
2023/09/15 07:04:44;;;;;;;3.67;2.00;;;19.30;85.50;;;;;;5034782;28;20092;-28
2023/09/15 07:07:10;;;;;;;5.82;2.10;;;18.70;84.90;;;;;;5030604;28;20038;-28
2023/09/15 07:09:37;;;;;;;2.70;1.90;;;19.00;72.50;;;;;;5015163;28;20057;-28
2023/09/15 07:12:05;;;;;;;2.88;2.00;;;18.30;84.70;;;;;;5014830;28;20046;-28
2023/09/15 07:14:33;;;;;;;2.85;2.13;;;19.10;81.60;;;;;;5020690;28;20132;-28
2023/09/15 07:17:00;;;;;;;3.65;2.00;;;18.90;79.80;;;;;;5034301;28;20144;-29
2023/09/15 07:19:26;;;;;;;4.38;2.08;;;19.10;85.00;;;;;;5034509;28;20129;-28
2023/09/15 07:21:53;;;;;;;2.83;2.15;;;19.10;85.50;;;;;;5033836;28;20125;-27
2023/09/15 07:24:20;;;;;;;2.67;2.10;;;19.90;73.50;;;;;;5034582;28;20128;-28
2023/09/15 07:26:47;;;;;;;3.28;2.10;;;19.40;71.30;;;;;;5034090;28;20092;-28
2023/09/15 07:29:14;;;;;;;2.92;1.80;;;18.90;70.30;;;;;;5034046;28;20053;-29
2023/09/15 07:31:42;;;;;;;3.95;2.20;;;19.20;85.50;;;;;;5034343;28;20131;-28
2023/09/15 07:34:09;;;;;;;2.95;2.10;;;;;;;;;;5033545;28;20045;-28
2023/09/15 07:36:36;;;;;;;3.35;2.15;;;18.80;79.50;;;;;;5033531;28;20129;-28
2023/09/15 07:39:05;;;;;;;6.18;2.30;;;19.00;85.40;;;;;;5034278;28;20128;-28
2023/09/15 07:41:31;;;;;;;4.18;2.17;;;18.10;84.70;;;;;;5033470;28;20136;-28
2023/09/15 07:44:00;;;;;;;3.00;2.22;;;19.10;71.20;;;;;;5033929;28;20088;-28
2023/09/15 07:46:27;;;;;;;4.18;2.03;;;18.60;85.00;;;;;;5033787;28;20045;-28
2023/09/15 07:48:56;;;;;;;4.85;2.30;;;18.90;67.00;;;;;;5033668;28;20057;-32
2023/09/15 07:51:24;;;;;;;5.82;2.50;;;;;;;;;;5025306;28;20124;-28
2023/09/15 07:53:52;;;;;;;3.70;2.35;;;;;;;;;;5024383;28;20053;-31
2023/09/15 07:56:21;;;;;;;3.70;2.40;;;;;;;;;;5033861;28;20048;-28
2023/09/15 07:58:47;;;;;;;4.72;2.35;;;18.90;85.20;;;;;;5033753;28;20071;-28
2023/09/15 08:01:14;;;;;;;5.55;2.20;;;19.60;85.40;;;;;;5032963;28;20232;-28
2023/09/15 08:03:41;;;;;;;3.83;2.20;;;;;;;;;;5033829;28;20099;-29
2023/09/15 08:06:14;;;;;;;4.82;2.08;;;18.60;85.20;;;;;;5033655;28;20061;-31
2023/09/15 08:08:42;;;;;;;5.40;2.40;;;;;;;;;;5032549;28;20053;-30
2023/09/15 08:11:09;;;;;;;5.65;2.20;;;;;;;;;;5033360;28;20422;-29
2023/09/15 08:13:36;;;;;;;5.03;2.20;;;18.50;85.20;;;;;;5033699;28;20088;-31
2023/09/15 08:16:03;;;;;;;4.20;2.03;;;19.30;85.70;;;;;;5033599;28;20137;-31
2023/09/15 08:18:30;;;;;;;3.95;2.20;;;;;;;;;;5033560;28;20136;-31
2023/09/15 08:20:56;;;;;;;3.75;2.20;;;18.90;73.70;;;;;;5031891;28;20128;-30
2023/09/15 08:23:24;;;;;;;5.32;2.03;;;18.80;67.20;;;;;;5033071;28;20513;-30
2023/09/15 08:25:51;;;;;;;5.03;2.63;;;18.80;85.40;;;;;;5032724;28;20128;-31
2023/09/15 08:28:18;;;;;;;4.65;2.15;;;18.60;81.40;;;;;;5032354;28;20131;-28
2023/09/15 08:30:46;;;;;;;3.42;2.08;;;18.50;85.60;;;;;;5032705;28;20124;-28
2023/09/15 08:33:13;;;;;;;3.95;2.10;;;;;;;;;;5033155;28;20053;-28
2023/09/15 08:35:40;;;;;;;4.72;2.00;;;19.10;73.80;;;;;;5032629;28;20132;-29
2023/09/15 08:38:08;;;;;;;3.75;2.03;;;;;;;;;;5029294;28;20132;-29
2023/09/15 08:40:39;;;;;;;2.40;1.85;;;18.80;79.30;;;;;;5031588;28;20041;-28
2023/09/15 08:43:06;;;;;;;3.20;2.03;;;19.00;85.50;;;;;;5032681;28;20052;-28
2023/09/15 08:45:34;;;;;;;5.32;2.10;;;18.50;68.00;;;;;;5032854;28;20064;-28
2023/09/15 08:48:02;;;;;;;3.17;1.98;;;19.00;80.60;;;;;;5032292;28;20056;-28
2023/09/15 08:50:29;;;;;;;4.57;2.03;;;;;;;;;;5032798;28;20095;-28
2023/09/15 08:52:55;;;;;;;3.35;2.05;;;18.80;85.90;;;;;;5032577;28;20579;-28
2023/09/15 08:55:23;;;;;;;4.18;1.80;;;;;;;;;;5032881;28;20124;-30
2023/09/15 08:57:51;;;;;;;2.88;1.80;;;19.10;73.30;;;;;;5050491;28;20502;-28
2023/09/15 09:00:18;;;;;;;2.90;1.73;;;19.10;86.10;;;;;;5052334;28;20137;-28
2023/09/15 09:02:45;;;;;;;2.55;1.85;;;;;;;;;;5052638;28;20497;-31
2023/09/15 09:05:12;;;;;;;3.55;1.88;;;19.00;85.60;;;;;;5052578;28;20056;-31
2023/09/15 09:07:39;;;;;;;3.55;1.73;;;18.40;71.60;;;;;;5039967;28;20466;-31
2023/09/15 09:10:06;;;;;;;2.40;1.77;;;18.50;85.30;;;;;;5032179;28;20132;-31
2023/09/15 09:12:33;;;;;;;4.15;1.90;;;;;;;;;;5031468;28;20169;-30
2023/09/15 09:15:01;;;;;;;3.40;1.83;;;19.10;85.70;;;;;;5032541;28;20060;-31
2023/09/15 09:17:28;;;;;;;3.95;1.73;;;19.00;85.70;;;;;;5032448;28;20132;-31
2023/09/15 09:19:55;;;;;;;3.28;1.80;;;18.90;72.20;;;;;;5032003;28;20061;-28
2023/09/15 09:22:22;;;;;;;2.63;1.60;;;19.10;79.80;;;;;;5032425;28;20132;-29
2023/09/15 09:24:53;;;;;;;2.70;1.95;;;18.90;67.30;;;;;;5032455;28;20084;-30
2023/09/15 09:27:21;;;;;;;2.33;1.70;;;;;;;;;;5032195;28;20577;-28
2023/09/15 09:29:48;;;;;;;3.20;1.75;;;17.80;69.20;;;;;;5032153;28;20053;-28
2023/09/15 09:32:16;;;;;;;3.10;1.77;;;19.10;85.60;;;;;;5031938;28;20053;-28
2023/09/15 09:34:43;;;;;;;3.67;1.60;;;18.80;71.10;;;;;;5032141;28;20132;-28
2023/09/15 09:37:10;;;;;;;3.05;2.00;;;;;;;;;;5041910;28;20129;-30
2023/09/15 09:39:36;;;;;;;3.22;1.50;;;17.80;84.90;;;;;;5052062;28;20114;-28
2023/09/15 09:42:03;;;;;;;2.53;1.70;;;19.30;86.00;;;;;;5051765;28;20136;-28
2023/09/15 09:44:31;;;;;;;2.38;1.70;;;;;;;;;;5051783;28;20132;-29
2023/09/15 09:46:58;;;;;;;2.28;1.63;;;19.20;75.60;;;;;;5051837;28;20135;-29
2023/09/15 09:49:26;;;;;;;2.35;1.60;;;18.60;85.60;;;;;;5033765;28;20124;-29
2023/09/15 09:51:53;;;;;;;2.50;1.70;;;19.00;85.30;;;;;;5031760;28;20132;-31
2023/09/15 09:54:20;;;;;;;4.10;1.90;;;19.20;85.70;;;;;;5031687;28;20692;-31
2023/09/15 09:56:50;;;;;;;3.03;1.63;;;19.20;73.90;;;;;;5040918;28;20081;-30
2023/09/15 09:59:17;;;;;;;2.03;1.50;;;19.20;83.10;;;;;;5051824;28;20056;-30
2023/09/15 10:01:43;;;;;;;2.45;1.55;;;18.90;84.90;;;;;;5044849;28;20099;-31
2023/09/15 10:04:10;;;;;;;2.45;1.50;;;;;;;;;;5032197;28;20053;-30
2023/09/15 10:06:39;;;;;;;3.28;1.52;;;18.90;84.90;;;;;;5031854;28;20057;-31
2023/09/15 10:09:06;;;;;;;3.97;2.10;;;19.20;85.00;;;;;;5031591;28;20077;-31
2023/09/15 10:11:34;;;;;;;2.33;1.60;;;;;;;;;;5031415;28;20054;-31
2023/09/15 10:14:02;;;;;;;2.20;1.50;;;19.60;68.30;;;;;;5031646;28;20056;-30
2023/09/15 10:16:31;;;;;;;2.28;1.52;;;19.20;70.50;;;;;;5031405;28;20506;-31
2023/09/15 10:18:57;;;;;;;5.15;1.73;;;19.30;84.20;;;;;;5031761;28;20132;-31
2023/09/15 10:21:25;;;;;;;1.75;1.30;;;18.30;83.80;;;;;;5023185;28;20621;-31
2023/09/15 10:24:01;;;;;;;2.35;1.60;;;19.80;84.40;;;;;;5014601;28;20124;-31
2023/09/15 10:26:28;;;;;;;2.88;1.65;;;;;;;;;;5015516;28;20145;-31
2023/09/15 10:28:55;;;;;;;1.92;1.42;;;19.10;84.40;;;;;;5020885;28;20502;-31
2023/09/15 10:31:23;;;;;;;2.33;1.40;;;19.90;84.50;;;;;;5035410;28;20073;-30
2023/09/15 10:33:50;;;;;;;3.13;1.52;;;18.30;77.90;;;;;;5035365;28;20056;-31
2023/09/15 10:36:17;;;;;;;2.95;1.50;;;;;;;;;;5035289;28;20099;-31
2023/09/15 10:38:45;;;;;;;2.22;1.67;;;;;;;;;;5034207;28;20056;-31
2023/09/15 10:41:23;;;;;;;3.92;1.70;;;20.00;66.40;;;;;;5033496;28;20050;-30
2023/09/15 10:43:50;;;;;;;3.03;1.90;;;19.00;84.20;;;;;;5034255;28;20089;-31
2023/09/15 10:46:17;;;;;;;2.22;1.48;;;20.30;84.60;;;;;;5028169;28;20605;-31
2023/09/15 10:48:46;;;;;;;2.35;1.65;;;19.50;66.20;;;;;;5026476;28;20136;-30
2023/09/15 10:51:14;;;;;;;2.55;1.33;;;20.40;71.00;;;;;;5026040;28;20502;-31
2023/09/15 10:53:44;;;;;;;2.75;1.55;;;19.60;84.60;;;;;;5035411;28;20049;-31
2023/09/15 10:56:13;;;;;;;2.65;1.50;;;19.50;84.40;;;;;;5034869;28;20049;-31
2023/09/15 10:58:39;;;;;;;2.28;1.40;;;20.00;84.60;;;;;;5035092;28;20383;-32
2023/09/15 11:01:08;;;;;;;2.03;1.40;;;19.90;73.30;;;;;;5034991;28;20137;-31
2023/09/15 11:03:35;;;;;;;2.85;1.80;;;20.40;84.30;;;;;;5033659;28;20084;-31
2023/09/15 11:06:02;;;;;;;2.67;1.63;;;19.40;83.40;;;;;;5034806;28;20650;-31
2023/09/15 11:08:29;;;;;;;2.60;1.60;;;20.20;84.00;;;;;;5033287;28;20059;-31
2023/09/15 11:10:59;;;;;;;1.92;1.40;;;20.10;84.00;;;;;;5030570;28;20534;-31
2023/09/15 11:13:28;;;;;;;2.72;2.03;;;20.30;83.60;;;;;;5035066;28;20046;-31
2023/09/15 11:15:55;;;;;;;3.30;1.70;;;;;;;;;;5034690;28;20057;-31
2023/09/15 11:18:21;;;;;;;5.32;1.85;;;19.80;83.20;;;;;;5033414;28;20130;-31
2023/09/15 11:20:48;;;;;;;2.75;1.55;;;20.20;83.20;;;;;;5014966;28;20129;-31
2023/09/15 11:23:17;;;;;;;2.17;1.50;;;20.50;73.70;;;;;;5021840;28;20051;-30
2023/09/15 11:25:43;;;;;;;2.20;1.52;;;20.00;83.10;;;;;;5034204;28;20092;-31
2023/09/15 11:28:14;;;;;;;2.25;1.63;;;20.10;83.00;;;;;;5033782;28;20136;-31
2023/09/15 11:30:42;;;;;;;2.13;1.50;;;20.00;65.20;;;;;;5034040;28;20053;-31
2023/09/15 11:33:09;;;;;;;3.28;1.75;;;19.30;83.00;;;;;;5033460;28;20136;-31
2023/09/15 11:35:35;;;;;;;3.47;1.70;;;20.40;77.90;;;;;;5033251;28;20057;-30
2023/09/15 11:38:02;;;;;;;3.10;1.77;;;21.10;83.60;;;;;;5033879;28;20132;-31
2023/09/15 11:40:29;;;;;;;3.33;1.63;;;;;;;;;;5033320;28;20049;-30
2023/09/15 11:42:57;;;;;;;4.10;2.00;;;19.70;83.10;;;;;;5024088;28;20490;-31
2023/09/15 11:45:26;;;;;;;2.95;2.20;;;19.90;67.50;;;;;;5033002;28;20099;-28
2023/09/15 11:47:54;;;;;;;3.17;2.08;;;19.80;81.00;;;;;;5033857;28;20132;-28
2023/09/15 11:50:22;;;;;;;4.63;2.10;;;;;;;;;;5033978;28;20136;-31
2023/09/15 11:52:48;;;;;;;5.85;2.10;;;19.90;83.50;;;;;;5033929;28;20103;-28
2023/09/15 11:55:19;;;;;;;4.05;2.10;;;19.60;83.20;;;;;;5034069;28;20049;-28
2023/09/15 11:57:46;;;;;;;5.60;2.15;;;;;;;;;;5034908;28;20088;-31
2023/09/15 12:00:15;;;;;;;4.05;1.85;;;20.40;83.60;;;;;;5033788;28;20053;-28
2023/09/15 12:02:42;;;;;;;5.45;2.25;;;;;;;;;;5033459;28;20148;-30
2023/09/15 12:05:10;;;;;;;6.13;2.17;;;19.40;83.20;;;;;;5033762;28;20580;-28
2023/09/15 12:07:37;;;;;;;4.72;2.10;;;19.90;83.90;;;;;;5034079;28;20152;-28
2023/09/15 12:10:05;;;;;;;4.07;2.20;;;;;;;;;;5033710;28;20562;-30
2023/09/15 12:12:31;;;;;;;4.07;2.30;;;20.40;77.10;;;;;;5033134;28;20178;-28
2023/09/15 12:15:01;;;;;;;4.38;2.15;;;20.30;69.10;;;;;;5033450;28;20523;-30
2023/09/15 12:17:28;;;;;;;5.10;2.50;;;;;;;;;;5029172;28;20378;-28
2023/09/15 12:19:59;;;;;;;8.25;2.42;;;20.20;83.60;;;;;;5032947;28;20128;-31
2023/09/15 12:22:32;;;;;;;4.57;2.42;;;20.00;65.90;;;;;;5033520;28;20050;-30
2023/09/15 12:24:59;;;;;;;4.78;2.20;;;19.80;68.30;;;;;;5033265;28;20061;-30
2023/09/15 12:27:26;;;;;;;4.20;2.13;;;19.80;83.60;;;;;;5033350;28;20498;-31
2023/09/15 12:29:53;;;;;;;5.85;2.78;;;;;;;;;;5033059;28;20481;-31
2023/09/15 12:32:26;;;;;;;4.97;2.20;;;20.20;83.80;;;;;;5013465;28;20050;-31
2023/09/15 12:34:53;;;;;;;5.35;2.25;;;;;;;;;;5021237;28;20045;-30
2023/09/15 12:37:20;;;;;;;5.43;2.40;;;20.10;83.90;;;;;;5032488;28;20152;-31
2023/09/15 12:39:48;;;;;;;4.57;2.10;;;20.20;65.90;;;;;;5033142;28;20144;-31
2023/09/15 12:42:15;;;;;;;5.20;2.47;;;20.40;83.60;;;;;;5033074;28;20133;-31
2023/09/15 12:44:42;;;;;;;5.60;2.10;;;;;;;;;;5033134;28;20130;-31
2023/09/15 12:47:08;;;;;;;4.45;2.00;;;19.80;83.50;;;;;;5024300;28;20133;-31
2023/09/15 12:49:35;;;;;;;4.28;2.03;;;;;;;;;;5013401;28;20471;-30
2023/09/15 12:52:02;;;;;;;6.28;2.30;;;20.30;83.70;;;;;;5012708;28;20160;-31
2023/09/15 12:54:30;;;;;;;6.15;2.42;;;19.50;83.60;;;;;;5013065;28;20136;-31
2023/09/15 12:56:58;;;;;;;6.65;2.40;;;20.20;76.20;;;;;;5025878;28;20045;-31
2023/09/15 12:59:25;;;;;;;5.45;2.22;;;20.20;83.70;;;;;;5032325;28;20136;-31
2023/09/15 13:01:52;;;;;;;5.20;2.13;;;20.50;73.70;;;;;;5032018;28;20140;-31
2023/09/15 13:04:19;;;;;;;7.15;2.25;;;19.70;83.60;;;;;;5032442;28;20128;-30
2023/09/15 13:06:46;;;;;;;3.90;1.90;;;;;;;;;;5029255;28;20458;-30
2023/09/15 13:09:14;;;;;;;3.55;2.13;;;19.30;83.60;;;;;;5029434;28;20095;-30